sensor_id;sensor_type;location;lat;lon;timestamp;temperature;humidity
20438;DHT22;17436;50.338;8.810;2022-09-01T00:01:47;17.50;1.00
20438;DHT22;17436;50.338;8.810;2022-09-01T00:04:17;17.40;1.00
20438;DHT22;17436;50.338;8.810;2022-09-01T00:06:44;17.40;1.00
20438;DHT22;17436;50.338;8.810;2022-09-01T00:09:14;17.40;1.00
20438;DHT22;17436;50.338;8.810;2022-09-01T00:11:45;17.10;1.00
20438;DHT22;17436;50.338;8.810;2022-09-01T00:14:13;17.10;1.00
20438;DHT22;17436;50.338;8.810;2022-09-01T00:16:40;16.90;1.00
20438;DHT22;17436;50.338;8.810;2022-09-01T00:19:10;17.00;1.00
20438;DHT22;17436;50.338;8.810;2022-09-01T00:21:39;17.10;1.00
20438;DHT22;17436;50.338;8.810;2022-09-01T00:24:08;17.30;1.00
20438;DHT22;17436;50.338;8.810;2022-09-01T00:26:35;17.30;1.00
20438;DHT22;17436;50.338;8.810;2022-09-01T00:29:02;17.40;1.00
20438;DHT22;17436;50.338;8.810;2022-09-01T00:31:30;17.50;1.00
20438;DHT22;17436;50.338;8.810;2022-09-01T00:33:57;17.40;1.00
20438;DHT22;17436;50.338;8.810;2022-09-01T00:36:25;17.30;1.10
20438;DHT22;17436;50.338;8.810;2022-09-01T00:38:52;17.30;1.40
20438;DHT22;17436;50.338;8.810;2022-09-01T00:41:21;17.40;1.00
20438;DHT22;17436;50.338;8.810;2022-09-01T00:43:51;17.10;1.00
20438;DHT22;17436;50.338;8.810;2022-09-01T00:46:19;17.20;1.00
20438;DHT22;17436;50.338;8.810;2022-09-01T00:48:47;17.10;1.00
20438;DHT22;17436;50.338;8.810;2022-09-01T00:51:16;17.00;1.00
20438;DHT22;17436;50.338;8.810;2022-09-01T00:53:45;16.90;1.00
20438;DHT22;17436;50.338;8.810;2022-09-01T00:56:12;16.90;1.00
20438;DHT22;17436;50.338;8.810;2022-09-01T00:58:40;16.90;1.00
20438;DHT22;17436;50.338;8.810;2022-09-01T01:01:10;16.80;1.00
20438;DHT22;17436;50.338;8.810;2022-09-01T01:03:37;16.80;1.00
20438;DHT22;17436;50.338;8.810;2022-09-01T01:06:08;16.80;1.00
20438;DHT22;17436;50.338;8.810;2022-09-01T01:08:37;16.80;1.00
20438;DHT22;17436;50.338;8.810;2022-09-01T01:11:10;16.80;1.50
20438;DHT22;17436;50.338;8.810;2022-09-01T01:13:53;16.90;1.30
20438;DHT22;17436;50.338;8.810;2022-09-01T01:16:21;16.80;1.00
20438;DHT22;17436;50.338;8.810;2022-09-01T01:18:48;16.80;1.00
20438;DHT22;17436;50.338;8.810;2022-09-01T01:21:19;16.70;1.00
20438;DHT22;17436;50.338;8.810;2022-09-01T01:24:21;16.50;1.00
20438;DHT22;17436;50.338;8.810;2022-09-01T01:26:48;16.60;1.20
20438;DHT22;17436;50.338;8.810;2022-09-01T01:29:15;16.40;2.10
20438;DHT22;17436;50.338;8.810;2022-09-01T01:31:43;16.30;3.40
20438;DHT22;17436;50.338;8.810;2022-09-01T01:34:12;16.40;3.90
20438;DHT22;17436;50.338;8.810;2022-09-01T01:36:39;16.40;4.90
20438;DHT22;17436;50.338;8.810;2022-09-01T01:39:09;16.40;5.80
20438;DHT22;17436;50.338;8.810;2022-09-01T01:41:39;16.50;5.70
20438;DHT22;17436;50.338;8.810;2022-09-01T01:44:11;16.50;5.40
20438;DHT22;17436;50.338;8.810;2022-09-01T01:46:40;16.30;5.70
20438;DHT22;17436;50.338;8.810;2022-09-01T01:49:08;16.50;5.60
20438;DHT22;17436;50.338;8.810;2022-09-01T01:51:38;16.50;4.90
20438;DHT22;17436;50.338;8.810;2022-09-01T01:54:05;16.50;5.20
20438;DHT22;17436;50.338;8.810;2022-09-01T01:56:33;16.50;5.30
20438;DHT22;17436;50.338;8.810;2022-09-01T01:59:04;16.50;6.70
20438;DHT22;17436;50.338;8.810;2022-09-01T02:01:32;16.50;7.00
20438;DHT22;17436;50.338;8.810;2022-09-01T02:03:59;16.50;8.30
20438;DHT22;17436;50.338;8.810;2022-09-01T02:06:32;16.50;8.30
20438;DHT22;17436;50.338;8.810;2022-09-01T02:08:59;16.40;8.30
20438;DHT22;17436;50.338;8.810;2022-09-01T02:11:30;16.40;8.20
20438;DHT22;17436;50.338;8.810;2022-09-01T02:13:59;16.50;6.90
20438;DHT22;17436;50.338;8.810;2022-09-01T02:16:29;16.50;6.30
20438;DHT22;17436;50.338;8.810;2022-09-01T02:18:57;16.40;7.40
20438;DHT22;17436;50.338;8.810;2022-09-01T02:21:25;16.30;8.10
20438;DHT22;17436;50.338;8.810;2022-09-01T02:23:55;16.40;10.10
20438;DHT22;17436;50.338;8.810;2022-09-01T02:26:25;16.40;10.90
20438;DHT22;17436;50.338;8.810;2022-09-01T02:28:54;16.40;11.30
20438;DHT22;17436;50.338;8.810;2022-09-01T02:31:22;16.60;10.10
20438;DHT22;17436;50.338;8.810;2022-09-01T02:33:50;16.60;10.80
20438;DHT22;17436;50.338;8.810;2022-09-01T02:36:19;16.70;8.60
20438;DHT22;17436;50.338;8.810;2022-09-01T02:38:47;16.70;8.70
20438;DHT22;17436;50.338;8.810;2022-09-01T02:41:17;16.70;8.40
20438;DHT22;17436;50.338;8.810;2022-09-01T02:43:46;16.80;8.50
20438;DHT22;17436;50.338;8.810;2022-09-01T02:46:13;16.80;8.50
20438;DHT22;17436;50.338;8.810;2022-09-01T02:48:43;16.90;8.60
20438;DHT22;17436;50.338;8.810;2022-09-01T02:51:15;16.90;8.60
20438;DHT22;17436;50.338;8.810;2022-09-01T02:53:44;17.00;8.60
20438;DHT22;17436;50.338;8.810;2022-09-01T02:56:11;17.00;7.80
20438;DHT22;17436;50.338;8.810;2022-09-01T02:58:40;17.10;6.90
20438;DHT22;17436;50.338;8.810;2022-09-01T03:01:12;17.10;6.80
20438;DHT22;17436;50.338;8.810;2022-09-01T03:03:38;17.10;7.10
20438;DHT22;17436;50.338;8.810;2022-09-01T03:06:05;17.10;7.00
20438;DHT22;17436;50.338;8.810;2022-09-01T03:08:34;17.00;7.80
20438;DHT22;17436;50.338;8.810;2022-09-01T03:11:04;16.80;9.30
20438;DHT22;17436;50.338;8.810;2022-09-01T03:13:36;16.60;9.90
20438;DHT22;17436;50.338;8.810;2022-09-01T03:16:03;16.80;8.80
20438;DHT22;17436;50.338;8.810;2022-09-01T03:18:30;16.80;8.50
20438;DHT22;17436;50.338;8.810;2022-09-01T03:20:58;16.90;8.60
20438;DHT22;17436;50.338;8.810;2022-09-01T03:23:27;16.80;8.50
20438;DHT22;17436;50.338;8.810;2022-09-01T03:25:57;16.90;8.60
20438;DHT22;17436;50.338;8.810;2022-09-01T03:28:24;16.90;8.60
20438;DHT22;17436;50.338;8.810;2022-09-01T03:30:53;16.90;9.40
20438;DHT22;17436;50.338;8.810;2022-09-01T03:33:22;16.90;8.60
20438;DHT22;17436;50.338;8.810;2022-09-01T03:35:49;16.80;8.50
20438;DHT22;17436;50.338;8.810;2022-09-01T03:38:16;16.80;8.50
20438;DHT22;17436;50.338;8.810;2022-09-01T03:40:47;16.90;8.60
20438;DHT22;17436;50.338;8.810;2022-09-01T03:43:15;16.80;8.50
20438;DHT22;17436;50.338;8.810;2022-09-01T03:45:44;16.70;9.50
20438;DHT22;17436;50.338;8.810;2022-09-01T03:48:11;16.90;8.60
20438;DHT22;17436;50.338;8.810;2022-09-01T03:50:42;16.80;8.50
20438;DHT22;17436;50.338;8.810;2022-09-01T03:53:12;16.80;8.50
20438;DHT22;17436;50.338;8.810;2022-09-01T03:55:39;16.90;8.60
20438;DHT22;17436;50.338;8.810;2022-09-01T03:58:08;16.80;8.50
20438;DHT22;17436;50.338;8.810;2022-09-01T04:00:41;16.80;8.50
20438;DHT22;17436;50.338;8.810;2022-09-01T04:03:33;16.70;8.40
20438;DHT22;17436;50.338;8.810;2022-09-01T04:06:01;16.60;8.80
20438;DHT22;17436;50.338;8.810;2022-09-01T04:08:28;16.60;8.80
20438;DHT22;17436;50.338;8.810;2022-09-01T04:10:58;16.50;10.20
20438;DHT22;17436;50.338;8.810;2022-09-01T04:13:29;16.60;9.80
20438;DHT22;17436;50.338;8.810;2022-09-01T04:15:57;16.60;9.70
20438;DHT22;17436;50.338;8.810;2022-09-01T04:18:25;16.60;8.30
20438;DHT22;17436;50.338;8.810;2022-09-01T04:20:52;16.60;9.80
20438;DHT22;17436;50.338;8.810;2022-09-01T04:23:21;16.50;9.00
20438;DHT22;17436;50.338;8.810;2022-09-01T04:25:52;16.60;9.70
20438;DHT22;17436;50.338;8.810;2022-09-01T04:28:20;16.50;9.90
20438;DHT22;17436;50.338;8.810;2022-09-01T04:30:52;16.60;8.70
20438;DHT22;17436;50.338;8.810;2022-09-01T04:33:22;16.60;9.20
20438;DHT22;17436;50.338;8.810;2022-09-01T04:35:50;16.50;10.50
20438;DHT22;17436;50.338;8.810;2022-09-01T04:38:22;16.60;9.40
20438;DHT22;17436;50.338;8.810;2022-09-01T04:40:49;16.50;9.80
20438;DHT22;17436;50.338;8.810;2022-09-01T04:43:17;16.50;9.70
20438;DHT22;17436;50.338;8.810;2022-09-01T04:45:45;16.60;9.50
20438;DHT22;17436;50.338;8.810;2022-09-01T04:48:13;16.60;9.10
20438;DHT22;17436;50.338;8.810;2022-09-01T04:50:41;16.70;8.40
20438;DHT22;17436;50.338;8.810;2022-09-01T04:53:09;16.60;9.90
20438;DHT22;17436;50.338;8.810;2022-09-01T04:55:38;16.50;10.20
20438;DHT22;17436;50.338;8.810;2022-09-01T04:58:09;16.50;9.70
20438;DHT22;17436;50.338;8.810;2022-09-01T05:00:38;16.40;11.60
20438;DHT22;17436;50.338;8.810;2022-09-01T05:03:05;16.50;10.90
20438;DHT22;17436;50.338;8.810;2022-09-01T05:05:37;16.30;11.70
20438;DHT22;17436;50.338;8.810;2022-09-01T05:08:09;16.40;12.10
20438;DHT22;17436;50.338;8.810;2022-09-01T05:10:39;16.40;12.10
20438;DHT22;17436;50.338;8.810;2022-09-01T05:13:08;16.30;10.90
20438;DHT22;17436;50.338;8.810;2022-09-01T05:15:38;16.40;11.70
20438;DHT22;17436;50.338;8.810;2022-09-01T05:18:11;16.50;10.10
20438;DHT22;17436;50.338;8.810;2022-09-01T05:20:38;16.50;10.60
20438;DHT22;17436;50.338;8.810;2022-09-01T05:23:07;16.60;9.50
20438;DHT22;17436;50.338;8.810;2022-09-01T05:25:38;16.60;9.90
20438;DHT22;17436;50.338;8.810;2022-09-01T05:28:06;16.50;9.30
20438;DHT22;17436;50.338;8.810;2022-09-01T05:30:35;16.20;11.50
20438;DHT22;17436;50.338;8.810;2022-09-01T05:33:05;16.30;11.70
20438;DHT22;17436;50.338;8.810;2022-09-01T05:35:37;16.40;11.80
20438;DHT22;17436;50.338;8.810;2022-09-01T05:38:05;16.60;10.90
20438;DHT22;17436;50.338;8.810;2022-09-01T05:40:39;16.70;8.40
20438;DHT22;17436;50.338;8.810;2022-09-01T05:43:08;16.70;8.40
20438;DHT22;17436;50.338;8.810;2022-09-01T05:45:38;16.60;9.00
20438;DHT22;17436;50.338;8.810;2022-09-01T05:48:06;16.60;8.30
20438;DHT22;17436;50.338;8.810;2022-09-01T05:50:34;16.80;8.50
20438;DHT22;17436;50.338;8.810;2022-09-01T05:53:02;16.90;8.60
20438;DHT22;17436;50.338;8.810;2022-09-01T05:55:42;16.80;7.70
20438;DHT22;17436;50.338;8.810;2022-09-01T05:58:09;16.90;8.60
20438;DHT22;17436;50.338;8.810;2022-09-01T06:00:38;16.90;8.30
20438;DHT22;17436;50.338;8.810;2022-09-01T06:03:05;16.70;8.40
20438;DHT22;17436;50.338;8.810;2022-09-01T06:05:34;16.90;8.60
20438;DHT22;17436;50.338;8.810;2022-09-01T06:08:02;16.80;7.30
20438;DHT22;17436;50.338;8.810;2022-09-01T06:10:30;16.80;8.40
20438;DHT22;17436;50.338;8.810;2022-09-01T06:12:58;16.80;7.10
20438;DHT22;17436;50.338;8.810;2022-09-01T06:15:28;16.90;6.70
20438;DHT22;17436;50.338;8.810;2022-09-01T06:17:55;17.00;6.90
20438;DHT22;17436;50.338;8.810;2022-09-01T06:20:22;17.00;5.40
20438;DHT22;17436;50.338;8.810;2022-09-01T06:22:49;17.00;6.40
20438;DHT22;17436;50.338;8.810;2022-09-01T06:25:17;17.00;6.30
20438;DHT22;17436;50.338;8.810;2022-09-01T06:27:44;17.10;6.20
20438;DHT22;17436;50.338;8.810;2022-09-01T06:30:15;17.00;6.00
20438;DHT22;17436;50.338;8.810;2022-09-01T06:32:45;16.70;8.40
20438;DHT22;17436;50.338;8.810;2022-09-01T06:35:14;16.90;7.70
20438;DHT22;17436;50.338;8.810;2022-09-01T06:37:42;17.00;7.10
20438;DHT22;17436;50.338;8.810;2022-09-01T06:40:11;17.10;6.30
20438;DHT22;17436;50.338;8.810;2022-09-01T06:42:43;17.10;5.30
20438;DHT22;17436;50.338;8.810;2022-09-01T06:45:12;17.10;5.40
20438;DHT22;17436;50.338;8.810;2022-09-01T06:47:42;17.00;5.40
20438;DHT22;17436;50.338;8.810;2022-09-01T06:50:10;16.90;6.20
20438;DHT22;17436;50.338;8.810;2022-09-01T06:52:39;17.00;6.20
20438;DHT22;17436;50.338;8.810;2022-09-01T06:55:09;17.10;5.70
20438;DHT22;17436;50.338;8.810;2022-09-01T06:57:37;17.20;4.90
20438;DHT22;17436;50.338;8.810;2022-09-01T07:00:06;17.30;5.20
20438;DHT22;17436;50.338;8.810;2022-09-01T07:02:44;17.40;3.80
20438;DHT22;17436;50.338;8.810;2022-09-01T07:05:12;17.40;3.90
20438;DHT22;17436;50.338;8.810;2022-09-01T07:07:45;17.30;4.60
20438;DHT22;17436;50.338;8.810;2022-09-01T07:10:12;17.40;3.90
20438;DHT22;17436;50.338;8.810;2022-09-01T07:12:39;17.40;4.10
20438;DHT22;17436;50.338;8.810;2022-09-01T07:15:10;17.50;3.30
20438;DHT22;17436;50.338;8.810;2022-09-01T07:17:37;17.60;2.70
20438;DHT22;17436;50.338;8.810;2022-09-01T07:20:08;17.70;2.40
20438;DHT22;17436;50.338;8.810;2022-09-01T07:22:35;17.80;2.60
20438;DHT22;17436;50.338;8.810;2022-09-01T07:25:03;17.60;2.70
20438;DHT22;17436;50.338;8.810;2022-09-01T07:27:35;17.80;1.70
20438;DHT22;17436;50.338;8.810;2022-09-01T07:30:03;17.90;1.50
20438;DHT22;17436;50.338;8.810;2022-09-01T07:32:33;17.90;1.20
20438;DHT22;17436;50.338;8.810;2022-09-01T07:35:01;17.90;1.30
20438;DHT22;17436;50.338;8.810;2022-09-01T07:37:30;17.90;1.00
20438;DHT22;17436;50.338;8.810;2022-09-01T07:39:59;18.00;1.00
20438;DHT22;17436;50.338;8.810;2022-09-01T07:42:26;17.90;1.00
20438;DHT22;17436;50.338;8.810;2022-09-01T07:44:54;18.00;1.00
20438;DHT22;17436;50.338;8.810;2022-09-01T07:47:21;18.00;1.00
20438;DHT22;17436;50.338;8.810;2022-09-01T07:49:48;18.00;1.00
20438;DHT22;17436;50.338;8.810;2022-09-01T07:52:15;18.10;1.00
20438;DHT22;17436;50.338;8.810;2022-09-01T07:54:46;18.20;1.00
20438;DHT22;17436;50.338;8.810;2022-09-01T07:57:12;18.20;1.00
20438;DHT22;17436;50.338;8.810;2022-09-01T07:59:39;18.30;1.00
20438;DHT22;17436;50.338;8.810;2022-09-01T08:02:07;18.20;1.00
20438;DHT22;17436;50.338;8.810;2022-09-01T08:04:34;18.20;1.00
20438;DHT22;17436;50.338;8.810;2022-09-01T08:07:01;18.10;1.00
20438;DHT22;17436;50.338;8.810;2022-09-01T08:09:29;18.10;1.00
20438;DHT22;17436;50.338;8.810;2022-09-01T08:11:57;18.20;1.00
20438;DHT22;17436;50.338;8.810;2022-09-01T08:14:23;18.40;1.00
20438;DHT22;17436;50.338;8.810;2022-09-01T08:16:50;18.40;1.00
20438;DHT22;17436;50.338;8.810;2022-09-01T08:19:17;18.40;1.00
20438;DHT22;17436;50.338;8.810;2022-09-01T08:21:43;18.40;1.00
20438;DHT22;17436;50.338;8.810;2022-09-01T08:24:10;18.50;1.00
20438;DHT22;17436;50.338;8.810;2022-09-01T08:26:36;18.50;1.00
20438;DHT22;17436;50.338;8.810;2022-09-01T08:29:05;18.50;1.00
20438;DHT22;17436;50.338;8.810;2022-09-01T08:31:31;18.60;1.00
20438;DHT22;17436;50.338;8.810;2022-09-01T08:33:58;18.70;1.00
20438;DHT22;17436;50.338;8.810;2022-09-01T08:36:25;18.70;1.00
20438;DHT22;17436;50.338;8.810;2022-09-01T08:38:52;18.90;1.00
20438;DHT22;17436;50.338;8.810;2022-09-01T08:41:27;19.00;1.00
20438;DHT22;17436;50.338;8.810;2022-09-01T08:44:06;19.10;1.00
20438;DHT22;17436;50.338;8.810;2022-09-01T08:46:38;19.20;1.00
20438;DHT22;17436;50.338;8.810;2022-09-01T08:49:11;19.40;1.00
20438;DHT22;17436;50.338;8.810;2022-09-01T08:51:43;19.40;1.00
20438;DHT22;17436;50.338;8.810;2022-09-01T08:54:19;19.60;1.00
20438;DHT22;17436;50.338;8.810;2022-09-01T08:56:51;19.80;1.00
20438;DHT22;17436;50.338;8.810;2022-09-01T08:59:20;19.90;1.00
20438;DHT22;17436;50.338;8.810;2022-09-01T09:01:51;20.20;1.00
20438;DHT22;17436;50.338;8.810;2022-09-01T09:04:34;20.50;1.00
20438;DHT22;17436;50.338;8.810;2022-09-01T09:07:08;21.10;1.00
20438;DHT22;17436;50.338;8.810;2022-09-01T09:09:41;21.30;1.00
20438;DHT22;17436;50.338;8.810;2022-09-01T09:12:26;21.40;1.00
20438;DHT22;17436;50.338;8.810;2022-09-01T09:15:09;22.90;1.00
20438;DHT22;17436;50.338;8.810;2022-09-01T09:17:45;22.60;1.00
20438;DHT22;17436;50.338;8.810;2022-09-01T09:20:13;22.20;1.00
20438;DHT22;17436;50.338;8.810;2022-09-01T09:22:41;22.10;1.00
20438;DHT22;17436;50.338;8.810;2022-09-01T09:25:10;22.20;1.00
20438;DHT22;17436;50.338;8.810;2022-09-01T09:27:40;22.20;1.00
20438;DHT22;17436;50.338;8.810;2022-09-01T09:30:12;21.90;1.00
20438;DHT22;17436;50.338;8.810;2022-09-01T09:32:45;21.90;1.00
20438;DHT22;17436;50.338;8.810;2022-09-01T09:35:22;22.00;1.00
20438;DHT22;17436;50.338;8.810;2022-09-01T09:37:49;22.00;1.00
20438;DHT22;17436;50.338;8.810;2022-09-01T09:40:18;22.20;1.00
20438;DHT22;17436;50.338;8.810;2022-09-01T09:43:02;22.20;1.00
20438;DHT22;17436;50.338;8.810;2022-09-01T09:45:32;22.30;1.00
20438;DHT22;17436;50.338;8.810;2022-09-01T09:48:03;22.50;1.00
20438;DHT22;17436;50.338;8.810;2022-09-01T09:50:33;22.60;1.00
20438;DHT22;17436;50.338;8.810;2022-09-01T09:53:12;22.50;1.00
20438;DHT22;17436;50.338;8.810;2022-09-01T09:55:52;22.40;1.00
20438;DHT22;17436;50.338;8.810;2022-09-01T09:58:21;22.40;1.00
20438;DHT22;17436;50.338;8.810;2022-09-01T10:01:09;22.50;1.00
20438;DHT22;17436;50.338;8.810;2022-09-01T10:03:42;22.70;1.00
20438;DHT22;17436;50.338;8.810;2022-09-01T10:06:12;22.80;1.00
20438;DHT22;17436;50.338;8.810;2022-09-01T10:08:42;22.70;1.00
20438;DHT22;17436;50.338;8.810;2022-09-01T10:11:26;22.60;1.00
20438;DHT22;17436;50.338;8.810;2022-09-01T10:13:53;22.80;1.00
20438;DHT22;17436;50.338;8.810;2022-09-01T10:16:26;23.00;1.00
20438;DHT22;17436;50.338;8.810;2022-09-01T10:18:55;22.80;1.00
20438;DHT22;17436;50.338;8.810;2022-09-01T10:21:30;22.80;1.00
20438;DHT22;17436;50.338;8.810;2022-09-01T10:23:59;22.70;1.00
20438;DHT22;17436;50.338;8.810;2022-09-01T10:26:31;22.70;1.00
20438;DHT22;17436;50.338;8.810;2022-09-01T10:29:06;22.80;1.00
20438;DHT22;17436;50.338;8.810;2022-09-01T10:31:36;22.60;1.00
20438;DHT22;17436;50.338;8.810;2022-09-01T10:34:04;22.90;1.00
20438;DHT22;17436;50.338;8.810;2022-09-01T10:36:32;23.20;1.00
20438;DHT22;17436;50.338;8.810;2022-09-01T10:39:00;23.20;1.00
20438;DHT22;17436;50.338;8.810;2022-09-01T10:41:48;23.50;1.00
20438;DHT22;17436;50.338;8.810;2022-09-01T10:44:21;23.50;1.00
20438;DHT22;17436;50.338;8.810;2022-09-01T10:46:50;23.60;1.00
20438;DHT22;17436;50.338;8.810;2022-09-01T10:49:57;23.50;1.00
20438;DHT22;17436;50.338;8.810;2022-09-01T10:52:54;23.40;1.00
20438;DHT22;17436;50.338;8.810;2022-09-01T10:55:23;23.40;1.00
20438;DHT22;17436;50.338;8.810;2022-09-01T10:58:07;23.40;1.00
20438;DHT22;17436;50.338;8.810;2022-09-01T11:00:48;23.40;1.00
20438;DHT22;17436;50.338;8.810;2022-09-01T11:06:54;23.60;1.00
20438;DHT22;17436;50.338;8.810;2022-09-01T11:09:26;23.70;1.00
20438;DHT22;17436;50.338;8.810;2022-09-01T11:14:50;23.90;1.00
20438;DHT22;17436;50.338;8.810;2022-09-01T11:17:20;23.90;1.00
20438;DHT22;17436;50.338;8.810;2022-09-01T11:19:58;23.90;1.00
20438;DHT22;17436;50.338;8.810;2022-09-01T11:22:32;24.00;1.00
20438;DHT22;17436;50.338;8.810;2022-09-01T11:28:37;24.40;1.00
20438;DHT22;17436;50.338;8.810;2022-09-01T11:31:29;24.50;1.00
20438;DHT22;17436;50.338;8.810;2022-09-01T11:34:10;24.10;1.00
20438;DHT22;17436;50.338;8.810;2022-09-01T11:36:46;23.80;1.00
20438;DHT22;17436;50.338;8.810;2022-09-01T11:39:28;23.60;1.00
20438;DHT22;17436;50.338;8.810;2022-09-01T11:41:57;23.40;1.00
20438;DHT22;17436;50.338;8.810;2022-09-01T11:44:29;23.30;1.00
20438;DHT22;17436;50.338;8.810;2022-09-01T11:47:01;23.30;1.00
20438;DHT22;17436;50.338;8.810;2022-09-01T11:49:31;23.30;1.00
20438;DHT22;17436;50.338;8.810;2022-09-01T11:51:59;23.30;1.00
20438;DHT22;17436;50.338;8.810;2022-09-01T11:54:35;23.20;1.00
20438;DHT22;17436;50.338;8.810;2022-09-01T11:57:20;23.20;1.00
20438;DHT22;17436;50.338;8.810;2022-09-01T11:59:47;23.30;1.00
20438;DHT22;17436;50.338;8.810;2022-09-01T12:02:18;23.50;1.00
20438;DHT22;17436;50.338;8.810;2022-09-01T12:04:45;23.50;1.00
20438;DHT22;17436;50.338;8.810;2022-09-01T12:07:22;23.50;1.00
20438;DHT22;17436;50.338;8.810;2022-09-01T12:09:52;23.50;1.00
20438;DHT22;17436;50.338;8.810;2022-09-01T12:12:28;23.50;1.00
20438;DHT22;17436;50.338;8.810;2022-09-01T12:14:56;23.40;1.00
20438;DHT22;17436;50.338;8.810;2022-09-01T12:17:23;23.30;1.00
20438;DHT22;17436;50.338;8.810;2022-09-01T12:19:50;23.30;1.00
20438;DHT22;17436;50.338;8.810;2022-09-01T12:22:18;23.40;1.00
20438;DHT22;17436;50.338;8.810;2022-09-01T12:24:47;23.50;1.00
20438;DHT22;17436;50.338;8.810;2022-09-01T12:27:16;23.40;1.00
20438;DHT22;17436;50.338;8.810;2022-09-01T12:29:44;23.40;1.00
20438;DHT22;17436;50.338;8.810;2022-09-01T12:32:12;23.30;1.00
20438;DHT22;17436;50.338;8.810;2022-09-01T12:34:42;23.30;1.00
20438;DHT22;17436;50.338;8.810;2022-09-01T12:37:17;23.20;1.00
20438;DHT22;17436;50.338;8.810;2022-09-01T12:39:46;23.10;1.00
20438;DHT22;17436;50.338;8.810;2022-09-01T12:42:24;23.20;1.00
20438;DHT22;17436;50.338;8.810;2022-09-01T12:44:53;23.10;1.00
20438;DHT22;17436;50.338;8.810;2022-09-01T12:47:46;23.20;1.00
20438;DHT22;17436;50.338;8.810;2022-09-01T12:50:35;23.10;1.00
20438;DHT22;17436;50.338;8.810;2022-09-01T12:53:03;23.10;1.00
20438;DHT22;17436;50.338;8.810;2022-09-01T12:55:39;23.10;1.00
20438;DHT22;17436;50.338;8.810;2022-09-01T13:03:14;23.20;1.00
20438;DHT22;17436;50.338;8.810;2022-09-01T13:06:07;23.30;1.00
20438;DHT22;17436;50.338;8.810;2022-09-01T13:08:34;23.30;1.00
20438;DHT22;17436;50.338;8.810;2022-09-01T13:11:08;23.50;1.00
20438;DHT22;17436;50.338;8.810;2022-09-01T13:13:35;23.60;1.00
20438;DHT22;17436;50.338;8.810;2022-09-01T13:16:03;23.60;1.00
20438;DHT22;17436;50.338;8.810;2022-09-01T13:18:34;23.60;1.00
20438;DHT22;17436;50.338;8.810;2022-09-01T13:21:00;23.80;1.00
20438;DHT22;17436;50.338;8.810;2022-09-01T13:23:27;24.00;1.00
20438;DHT22;17436;50.338;8.810;2022-09-01T13:25:54;24.00;1.00
20438;DHT22;17436;50.338;8.810;2022-09-01T13:28:21;24.00;1.00
20438;DHT22;17436;50.338;8.810;2022-09-01T13:30:54;24.20;1.00
20438;DHT22;17436;50.338;8.810;2022-09-01T13:33:23;24.20;1.00
20438;DHT22;17436;50.338;8.810;2022-09-01T13:35:51;24.10;1.00
20438;DHT22;17436;50.338;8.810;2022-09-01T13:38:19;24.10;1.00
20438;DHT22;17436;50.338;8.810;2022-09-01T13:40:47;24.30;1.00
20438;DHT22;17436;50.338;8.810;2022-09-01T13:43:16;24.30;1.00
20438;DHT22;17436;50.338;8.810;2022-09-01T13:45:47;24.30;1.00
20438;DHT22;17436;50.338;8.810;2022-09-01T13:48:15;24.30;1.00
20438;DHT22;17436;50.338;8.810;2022-09-01T13:50:42;24.30;1.00
20438;DHT22;17436;50.338;8.810;2022-09-01T13:53:11;24.10;1.00
20438;DHT22;17436;50.338;8.810;2022-09-01T13:55:39;24.30;1.00
20438;DHT22;17436;50.338;8.810;2022-09-01T13:58:05;24.20;1.00
20438;DHT22;17436;50.338;8.810;2022-09-01T14:00:34;24.20;1.00
20438;DHT22;17436;50.338;8.810;2022-09-01T14:03:05;24.20;1.00
20438;DHT22;17436;50.338;8.810;2022-09-01T14:05:34;24.10;1.00
20438;DHT22;17436;50.338;8.810;2022-09-01T14:08:01;24.00;1.00
20438;DHT22;17436;50.338;8.810;2022-09-01T14:10:30;24.00;1.00
20438;DHT22;17436;50.338;8.810;2022-09-01T14:12:58;24.00;1.00
20438;DHT22;17436;50.338;8.810;2022-09-01T14:15:26;23.90;1.00
20438;DHT22;17436;50.338;8.810;2022-09-01T14:17:54;23.80;1.00
20438;DHT22;17436;50.338;8.810;2022-09-01T14:20:24;23.70;1.00
20438;DHT22;17436;50.338;8.810;2022-09-01T14:22:51;23.70;1.00
20438;DHT22;17436;50.338;8.810;2022-09-01T14:25:20;23.70;1.00
20438;DHT22;17436;50.338;8.810;2022-09-01T14:27:49;23.60;1.00
20438;DHT22;17436;50.338;8.810;2022-09-01T14:30:20;23.70;1.00
20438;DHT22;17436;50.338;8.810;2022-09-01T14:32:48;23.80;1.00
20438;DHT22;17436;50.338;8.810;2022-09-01T14:35:16;23.70;1.00
20438;DHT22;17436;50.338;8.810;2022-09-01T14:37:43;23.70;1.00
20438;DHT22;17436;50.338;8.810;2022-09-01T14:40:12;23.80;1.00
20438;DHT22;17436;50.338;8.810;2022-09-01T14:42:40;23.80;1.00
20438;DHT22;17436;50.338;8.810;2022-09-01T14:45:10;23.90;1.00
20438;DHT22;17436;50.338;8.810;2022-09-01T14:47:40;24.10;1.00
20438;DHT22;17436;50.338;8.810;2022-09-01T14:50:07;24.10;1.00
20438;DHT22;17436;50.338;8.810;2022-09-01T14:52:34;24.10;1.00
20438;DHT22;17436;50.338;8.810;2022-09-01T14:55:01;24.10;1.00
20438;DHT22;17436;50.338;8.810;2022-09-01T14:57:28;24.10;1.00
20438;DHT22;17436;50.338;8.810;2022-09-01T14:59:55;23.90;1.00
20438;DHT22;17436;50.338;8.810;2022-09-01T15:02:23;24.00;1.00
20438;DHT22;17436;50.338;8.810;2022-09-01T15:04:50;23.90;1.00
20438;DHT22;17436;50.338;8.810;2022-09-01T15:07:23;23.80;1.00
20438;DHT22;17436;50.338;8.810;2022-09-01T15:09:50;23.80;1.00
20438;DHT22;17436;50.338;8.810;2022-09-01T15:12:17;23.80;1.00
20438;DHT22;17436;50.338;8.810;2022-09-01T15:14:44;23.80;1.00
20438;DHT22;17436;50.338;8.810;2022-09-01T15:17:11;23.80;1.00
20438;DHT22;17436;50.338;8.810;2022-09-01T15:19:39;23.80;1.00
20438;DHT22;17436;50.338;8.810;2022-09-01T15:22:05;23.80;1.00
20438;DHT22;17436;50.338;8.810;2022-09-01T15:24:35;23.80;1.00
20438;DHT22;17436;50.338;8.810;2022-09-01T15:27:02;23.90;1.00
20438;DHT22;17436;50.338;8.810;2022-09-01T15:29:30;23.90;1.00
20438;DHT22;17436;50.338;8.810;2022-09-01T15:31:58;24.00;1.00
20438;DHT22;17436;50.338;8.810;2022-09-01T15:34:25;24.10;1.00
20438;DHT22;17436;50.338;8.810;2022-09-01T15:36:53;24.00;1.00
20438;DHT22;17436;50.338;8.810;2022-09-01T15:39:21;23.90;1.00
20438;DHT22;17436;50.338;8.810;2022-09-01T15:41:48;23.90;1.00
20438;DHT22;17436;50.338;8.810;2022-09-01T15:44:15;23.90;1.00
20438;DHT22;17436;50.338;8.810;2022-09-01T15:46:42;23.90;1.00
20438;DHT22;17436;50.338;8.810;2022-09-01T15:49:11;24.00;1.00
20438;DHT22;17436;50.338;8.810;2022-09-01T15:51:39;23.90;1.00
20438;DHT22;17436;50.338;8.810;2022-09-01T15:54:10;24.10;1.00
20438;DHT22;17436;50.338;8.810;2022-09-01T15:56:37;24.10;1.00
20438;DHT22;17436;50.338;8.810;2022-09-01T15:59:06;24.10;1.00
20438;DHT22;17436;50.338;8.810;2022-09-01T16:01:34;24.20;1.00
20438;DHT22;17436;50.338;8.810;2022-09-01T16:04:04;24.20;1.00
20438;DHT22;17436;50.338;8.810;2022-09-01T16:06:32;24.20;1.00
20438;DHT22;17436;50.338;8.810;2022-09-01T16:08:59;24.20;1.00
20438;DHT22;17436;50.338;8.810;2022-09-01T16:11:27;24.20;1.00
20438;DHT22;17436;50.338;8.810;2022-09-01T16:13:54;24.10;1.00
20438;DHT22;17436;50.338;8.810;2022-09-01T16:16:40;24.00;1.00
20438;DHT22;17436;50.338;8.810;2022-09-01T16:19:22;23.90;1.00